Terminal Aerodrome Forecast
Issued by NWS

Home | Current Version | Previous Version | Text Only | Print | Product List | Glossary On
Versions: 1 2 3 4 5 6 7 8 9 10 11 12 13 14 15 16 17 18 19
000
FTUS43 KDMX 120559 CCA
TAFOTM
TAF COR
KOTM 120559Z 1206/1306 32019G26KT P6SM BKN028
     FM120800 33015KT P6SM SCT035
     FM122100 29009KT P6SM SCT080
     FM130200 20006KT P6SM BKN035=

USA.gov is the U.S. government's official web portal to all federal, state and local government web resources and services.